Anaktuvuk Pass Airport Anaktuvuk Pass US
ICAO: PAKP
IATA:
Category: Medium
Scheduled Services:

Elevation: 2102 ft
TransAlt. 18000 ft.

Airport Communications:
AWOS 3:135.75
ANCHORAGE CNTR:124.6
CTAF:122.8
DEADHORSE RDO:122.15

PAKP Zoom In..

Runways:

(A) RW 02 length 4800 ft width 100 ft
---- / hdg 17

(B) RW 20 length 4800 ft width 100 ft
---- / hdg 197

Location; PAKP
Day. 15 / Time. 22.56 Zulu
* Altimeter: 29.68
* Temperature: 14° c. 57.2°f.
* Wind from: 170° Speed 08 kn.
Dewpoint: 08° c.
Visibility: 10 Statute Miles.
Clouds: Few 2300 ft.
Clouds: Overcast 9000 ft.

PAKP 152256Z AUTO 17008KT 10SM FEW023 OVC090 14/08 A2968 RMK AO2 RAB06E52 SLP070 P0000 T01390083


Wind From 170°
Speed 08 kn.

 
 
jpsmedia.com for Web Design worldairports.se 2018   terms of use